sensor_id;sensor_type;location;lat;lon;timestamp;temperature;humidity
67275;DHT22;55463;52.324;5.122;2022-09-14T00:00:53;14.50;87.63
67275;DHT22;55463;52.324;5.122;2022-09-14T00:03:19;14.52;87.90
67275;DHT22;55463;52.324;5.122;2022-09-14T00:05:44;14.52;87.89
67275;DHT22;55463;52.324;5.122;2022-09-14T00:08:10;14.50;87.78
67275;DHT22;55463;52.324;5.122;2022-09-14T00:10:43;14.49;87.88
67275;DHT22;55463;52.324;5.122;2022-09-14T00:13:10;14.49;87.90
67275;DHT22;55463;52.324;5.122;2022-09-14T00:15:38;14.49;87.80
67275;DHT22;55463;52.324;5.122;2022-09-14T00:18:05;14.49;88.27
67275;DHT22;55463;52.324;5.122;2022-09-14T00:20:31;14.50;88.37
67275;DHT22;55463;52.324;5.122;2022-09-14T00:22:56;14.49;88.28
67275;DHT22;55463;52.324;5.122;2022-09-14T00:25:22;14.48;88.71
67275;DHT22;55463;52.324;5.122;2022-09-14T00:27:47;14.49;88.72
67275;DHT22;55463;52.324;5.122;2022-09-14T00:30:13;14.50;88.97
67275;DHT22;55463;52.324;5.122;2022-09-14T00:32:38;14.50;89.21
67275;DHT22;55463;52.324;5.122;2022-09-14T00:35:04;14.52;89.12
67275;DHT22;55463;52.324;5.122;2022-09-14T00:37:29;14.50;89.11
67275;DHT22;55463;52.324;5.122;2022-09-14T00:39:54;14.50;88.98
67275;DHT22;55463;52.324;5.122;2022-09-14T00:42:20;14.49;89.00
67275;DHT22;55463;52.324;5.122;2022-09-14T00:47:11;14.50;89.05
67275;DHT22;55463;52.324;5.122;2022-09-14T00:49:39;14.50;89.13
67275;DHT22;55463;52.324;5.122;2022-09-14T00:54:40;14.55;89.65
67275;DHT22;55463;52.324;5.122;2022-09-14T00:57:05;14.58;89.79
67275;DHT22;55463;52.324;5.122;2022-09-14T00:59:33;14.59;89.89
67275;DHT22;55463;52.324;5.122;2022-09-14T01:02:01;14.60;89.86
67275;DHT22;55463;52.324;5.122;2022-09-14T01:04:26;14.58;89.76
67275;DHT22;55463;52.324;5.122;2022-09-14T01:20:59;14.66;90.05
67275;DHT22;55463;52.324;5.122;2022-09-14T01:24:00;14.67;90.13
67275;DHT22;55463;52.324;5.122;2022-09-14T01:29:41;14.69;90.08
67275;DHT22;55463;52.324;5.122;2022-09-14T01:32:21;14.69;90.06
67275;DHT22;55463;52.324;5.122;2022-09-14T01:39:57;14.72;89.85
67275;DHT22;55463;52.324;5.122;2022-09-14T01:42:26;14.70;89.72
67275;DHT22;55463;52.324;5.122;2022-09-14T01:44:56;14.70;89.48
67275;DHT22;55463;52.324;5.122;2022-09-14T01:47:34;14.76;89.67
67275;DHT22;55463;52.324;5.122;2022-09-14T01:50:09;14.77;89.59
67275;DHT22;55463;52.324;5.122;2022-09-14T01:53:18;14.79;89.48
67275;DHT22;55463;52.324;5.122;2022-09-14T01:58:36;14.83;89.74
67275;DHT22;55463;52.324;5.122;2022-09-14T02:01:04;14.83;89.54
67275;DHT22;55463;52.324;5.122;2022-09-14T02:03:42;14.84;89.53
67275;DHT22;55463;52.324;5.122;2022-09-14T02:06:21;14.81;89.45
67275;DHT22;55463;52.324;5.122;2022-09-14T02:08:49;14.81;89.53
67275;DHT22;55463;52.324;5.122;2022-09-14T02:11:15;14.81;89.55
67275;DHT22;55463;52.324;5.122;2022-09-14T02:13:41;14.80;89.76
67275;DHT22;55463;52.324;5.122;2022-09-14T02:16:06;14.81;89.83
67275;DHT22;55463;52.324;5.122;2022-09-14T02:18:32;14.81;89.72
67275;DHT22;55463;52.324;5.122;2022-09-14T02:21:01;14.80;89.83
67275;DHT22;55463;52.324;5.122;2022-09-14T02:23:28;14.80;89.73
67275;DHT22;55463;52.324;5.122;2022-09-14T02:25:54;14.80;89.95
67275;DHT22;55463;52.324;5.122;2022-09-14T02:28:19;14.81;89.90
67275;DHT22;55463;52.324;5.122;2022-09-14T02:30:57;14.81;90.24
67275;DHT22;55463;52.324;5.122;2022-09-14T02:39:32;14.80;90.38
67275;DHT22;55463;52.324;5.122;2022-09-14T02:45:01;14.80;90.49
67275;DHT22;55463;52.324;5.122;2022-09-14T02:50:27;14.81;90.25
67275;DHT22;55463;52.324;5.122;2022-09-14T02:55:37;14.81;90.10
67275;DHT22;55463;52.324;5.122;2022-09-14T02:58:12;14.83;89.97
67275;DHT22;55463;52.324;5.122;2022-09-14T03:00:42;14.84;89.98
67275;DHT22;55463;52.324;5.122;2022-09-14T03:03:09;14.80;89.92
67275;DHT22;55463;52.324;5.122;2022-09-14T03:05:35;14.80;89.87
67275;DHT22;55463;52.324;5.122;2022-09-14T03:08:01;14.81;89.94
67275;DHT22;55463;52.324;5.122;2022-09-14T03:10:28;14.81;89.96
67275;DHT22;55463;52.324;5.122;2022-09-14T03:12:54;14.81;90.07
67275;DHT22;55463;52.324;5.122;2022-09-14T03:15:19;14.81;90.14
67275;DHT22;55463;52.324;5.122;2022-09-14T03:17:46;14.77;90.06
67275;DHT22;55463;52.324;5.122;2022-09-14T03:20:22;14.77;90.10
67275;DHT22;55463;52.324;5.122;2022-09-14T03:22:48;14.77;90.16
67275;DHT22;55463;52.324;5.122;2022-09-14T03:25:14;14.77;90.10
67275;DHT22;55463;52.324;5.122;2022-09-14T03:27:40;14.75;90.23
67275;DHT22;55463;52.324;5.122;2022-09-14T03:30:07;14.79;90.58
67275;DHT22;55463;52.324;5.122;2022-09-14T03:32:32;14.75;90.62
67275;DHT22;55463;52.324;5.122;2022-09-14T03:34:58;14.77;90.71
67275;DHT22;55463;52.324;5.122;2022-09-14T03:37:24;14.75;90.85
67275;DHT22;55463;52.324;5.122;2022-09-14T03:39:50;14.76;90.87
67275;DHT22;55463;52.324;5.122;2022-09-14T03:42:15;14.75;90.89
67275;DHT22;55463;52.324;5.122;2022-09-14T03:44:41;14.76;91.01
67275;DHT22;55463;52.324;5.122;2022-09-14T03:47:07;14.73;91.03
67275;DHT22;55463;52.324;5.122;2022-09-14T03:49:32;14.73;91.10
67275;DHT22;55463;52.324;5.122;2022-09-14T03:51:58;14.72;91.07
67275;DHT22;55463;52.324;5.122;2022-09-14T03:54:23;14.73;91.11
67275;DHT22;55463;52.324;5.122;2022-09-14T03:56:51;14.73;91.04
67275;DHT22;55463;52.324;5.122;2022-09-14T03:59:16;14.73;91.24
67275;DHT22;55463;52.324;5.122;2022-09-14T04:01:42;14.72;91.09
67275;DHT22;55463;52.324;5.122;2022-09-14T04:04:07;14.73;91.06
67275;DHT22;55463;52.324;5.122;2022-09-14T04:06:32;14.75;91.11
67275;DHT22;55463;52.324;5.122;2022-09-14T04:08:58;14.76;91.11
67275;DHT22;55463;52.324;5.122;2022-09-14T04:11:24;14.75;91.09
67275;DHT22;55463;52.324;5.122;2022-09-14T04:13:50;14.76;91.28
67275;DHT22;55463;52.324;5.122;2022-09-14T04:16:17;14.75;91.33
67275;DHT22;55463;52.324;5.122;2022-09-14T04:18:43;14.73;91.20
67275;DHT22;55463;52.324;5.122;2022-09-14T04:21:19;14.70;91.26
67275;DHT22;55463;52.324;5.122;2022-09-14T04:23:45;14.70;91.19
67275;DHT22;55463;52.324;5.122;2022-09-14T04:26:12;14.70;91.24
67275;DHT22;55463;52.324;5.122;2022-09-14T04:28:38;14.70;91.13
67275;DHT22;55463;52.324;5.122;2022-09-14T04:31:04;14.70;91.20
67275;DHT22;55463;52.324;5.122;2022-09-14T04:33:32;14.72;91.12
67275;DHT22;55463;52.324;5.122;2022-09-14T04:35:59;14.70;91.23
67275;DHT22;55463;52.324;5.122;2022-09-14T04:38:26;14.70;91.46
67275;DHT22;55463;52.324;5.122;2022-09-14T04:40:51;14.73;91.53
67275;DHT22;55463;52.324;5.122;2022-09-14T04:43:17;14.70;91.58
67275;DHT22;55463;52.324;5.122;2022-09-14T04:45:42;14.73;91.63
67275;DHT22;55463;52.324;5.122;2022-09-14T04:48:08;14.72;91.60
67275;DHT22;55463;52.324;5.122;2022-09-14T04:50:33;14.72;91.75
67275;DHT22;55463;52.324;5.122;2022-09-14T04:52:59;14.72;91.70
67275;DHT22;55463;52.324;5.122;2022-09-14T04:55:24;14.70;91.81
67275;DHT22;55463;52.324;5.122;2022-09-14T04:57:49;14.69;91.84
67275;DHT22;55463;52.324;5.122;2022-09-14T05:00:15;14.72;91.82
67275;DHT22;55463;52.324;5.122;2022-09-14T05:02:41;14.72;91.76
67275;DHT22;55463;52.324;5.122;2022-09-14T05:05:07;14.72;91.74
67275;DHT22;55463;52.324;5.122;2022-09-14T05:07:32;14.67;91.74
67275;DHT22;55463;52.324;5.122;2022-09-14T05:09:57;14.69;91.67
67275;DHT22;55463;52.324;5.122;2022-09-14T05:12:23;14.67;91.67
67275;DHT22;55463;52.324;5.122;2022-09-14T05:14:48;14.67;91.56
67275;DHT22;55463;52.324;5.122;2022-09-14T05:17:13;14.66;91.61
67275;DHT22;55463;52.324;5.122;2022-09-14T05:19:39;14.67;91.67
67275;DHT22;55463;52.324;5.122;2022-09-14T05:22:04;14.67;91.69
67275;DHT22;55463;52.324;5.122;2022-09-14T05:24:29;14.65;91.60
67275;DHT22;55463;52.324;5.122;2022-09-14T05:26:55;14.63;91.88
67275;DHT22;55463;52.324;5.122;2022-09-14T05:29:20;14.66;91.82
67275;DHT22;55463;52.324;5.122;2022-09-14T05:31:46;14.70;91.83
67275;DHT22;55463;52.324;5.122;2022-09-14T05:34:12;14.73;91.83
67275;DHT22;55463;52.324;5.122;2022-09-14T05:36:38;14.73;91.79
67275;DHT22;55463;52.324;5.122;2022-09-14T05:39:04;14.75;91.69
67275;DHT22;55463;52.324;5.122;2022-09-14T05:41:30;14.77;91.68
67275;DHT22;55463;52.324;5.122;2022-09-14T05:43:57;14.79;91.66
67275;DHT22;55463;52.324;5.122;2022-09-14T05:46:22;14.83;91.68
67275;DHT22;55463;52.324;5.122;2022-09-14T05:48:48;14.84;91.60
67275;DHT22;55463;52.324;5.122;2022-09-14T05:51:17;14.87;91.56
67275;DHT22;55463;52.324;5.122;2022-09-14T05:53:54;14.90;91.59
67275;DHT22;55463;52.324;5.122;2022-09-14T05:56:20;14.93;91.56
67275;DHT22;55463;52.324;5.122;2022-09-14T05:58:46;14.94;91.61
67275;DHT22;55463;52.324;5.122;2022-09-14T06:01:22;14.97;91.64
67275;DHT22;55463;52.324;5.122;2022-09-14T06:03:49;14.98;91.66
67275;DHT22;55463;52.324;5.122;2022-09-14T06:06:17;15.01;91.62
67275;DHT22;55463;52.324;5.122;2022-09-14T06:08:43;15.03;91.76
67275;DHT22;55463;52.324;5.122;2022-09-14T06:11:14;15.07;91.98
67275;DHT22;55463;52.324;5.122;2022-09-14T06:13:40;15.10;92.08
67275;DHT22;55463;52.324;5.122;2022-09-14T06:16:11;15.14;92.15
67275;DHT22;55463;52.324;5.122;2022-09-14T06:18:38;15.18;91.98
67275;DHT22;55463;52.324;5.122;2022-09-14T06:21:04;15.20;91.99
67275;DHT22;55463;52.324;5.122;2022-09-14T06:23:31;15.25;92.16
67275;DHT22;55463;52.324;5.122;2022-09-14T06:25:58;15.28;91.79
67275;DHT22;55463;52.324;5.122;2022-09-14T06:28:25;15.32;91.62
67275;DHT22;55463;52.324;5.122;2022-09-14T06:30:51;15.38;91.53
67275;DHT22;55463;52.324;5.122;2022-09-14T06:33:17;15.42;91.40
67275;DHT22;55463;52.324;5.122;2022-09-14T06:35:43;15.46;91.10
67275;DHT22;55463;52.324;5.122;2022-09-14T06:38:10;15.50;90.86
67275;DHT22;55463;52.324;5.122;2022-09-14T06:40:36;15.58;90.82
67275;DHT22;55463;52.324;5.122;2022-09-14T06:43:02;15.62;90.55
67275;DHT22;55463;52.324;5.122;2022-09-14T06:45:30;15.69;90.58
67275;DHT22;55463;52.324;5.122;2022-09-14T06:47:57;15.71;90.26
67275;DHT22;55463;52.324;5.122;2022-09-14T06:50:22;15.76;89.67
67275;DHT22;55463;52.324;5.122;2022-09-14T06:52:48;15.83;89.66
67275;DHT22;55463;52.324;5.122;2022-09-14T06:55:13;15.90;89.41
67275;DHT22;55463;52.324;5.122;2022-09-14T06:57:39;15.94;89.11
67275;DHT22;55463;52.324;5.122;2022-09-14T07:00:04;16.00;88.89
67275;DHT22;55463;52.324;5.122;2022-09-14T07:02:30;16.08;88.85
67275;DHT22;55463;52.324;5.122;2022-09-14T07:04:55;16.12;88.81
67275;DHT22;55463;52.324;5.122;2022-09-14T07:07:21;16.20;88.42
67275;DHT22;55463;52.324;5.122;2022-09-14T07:09:47;16.24;87.44
67275;DHT22;55463;52.324;5.122;2022-09-14T07:12:12;16.38;87.52
67275;DHT22;55463;52.324;5.122;2022-09-14T07:14:38;16.45;87.29
67275;DHT22;55463;52.324;5.122;2022-09-14T07:17:04;16.57;87.22
67275;DHT22;55463;52.324;5.122;2022-09-14T07:19:29;16.63;86.47
67275;DHT22;55463;52.324;5.122;2022-09-14T07:21:55;16.81;86.37
67275;DHT22;55463;52.324;5.122;2022-09-14T07:24:20;16.95;85.77
67275;DHT22;55463;52.324;5.122;2022-09-14T07:26:45;17.10;84.88
67275;DHT22;55463;52.324;5.122;2022-09-14T07:29:14;17.17;83.45
67275;DHT22;55463;52.324;5.122;2022-09-14T07:31:43;17.35;83.66
67275;DHT22;55463;52.324;5.122;2022-09-14T07:34:09;17.48;82.21
67275;DHT22;55463;52.324;5.122;2022-09-14T07:36:36;17.56;81.77
67275;DHT22;55463;52.324;5.122;2022-09-14T07:39:04;17.69;82.01
67275;DHT22;55463;52.324;5.122;2022-09-14T07:41:30;17.74;81.85
67275;DHT22;55463;52.324;5.122;2022-09-14T07:43:59;17.70;81.53
67275;DHT22;55463;52.324;5.122;2022-09-14T07:46:26;17.67;80.77
67275;DHT22;55463;52.324;5.122;2022-09-14T07:48:56;17.63;79.52
67275;DHT22;55463;52.324;5.122;2022-09-14T07:51:22;17.52;80.18
67275;DHT22;55463;52.324;5.122;2022-09-14T07:53:48;17.52;80.16
67275;DHT22;55463;52.324;5.122;2022-09-14T07:56:13;17.50;79.26
67275;DHT22;55463;52.324;5.122;2022-09-14T07:58:40;17.52;79.93
67275;DHT22;55463;52.324;5.122;2022-09-14T08:01:14;17.52;79.59
67275;DHT22;55463;52.324;5.122;2022-09-14T08:03:43;17.55;79.57
67275;DHT22;55463;52.324;5.122;2022-09-14T08:06:22;17.53;79.63
67275;DHT22;55463;52.324;5.122;2022-09-14T08:08:51;17.61;80.26
67275;DHT22;55463;52.324;5.122;2022-09-14T08:11:30;17.62;80.73
67275;DHT22;55463;52.324;5.122;2022-09-14T08:13:58;17.63;79.71
67275;DHT22;55463;52.324;5.122;2022-09-14T08:16:26;17.69;80.09
67275;DHT22;55463;52.324;5.122;2022-09-14T08:18:57;17.52;78.76
67275;DHT22;55463;52.324;5.122;2022-09-14T08:21:23;17.45;80.15
67275;DHT22;55463;52.324;5.122;2022-09-14T08:23:49;17.62;80.69
67275;DHT22;55463;52.324;5.122;2022-09-14T08:26:17;17.57;80.17
67275;DHT22;55463;52.324;5.122;2022-09-14T08:28:44;17.59;80.52
67275;DHT22;55463;52.324;5.122;2022-09-14T08:31:15;17.62;80.29
67275;DHT22;55463;52.324;5.122;2022-09-14T08:33:44;17.61;80.20
67275;DHT22;55463;52.324;5.122;2022-09-14T08:36:12;17.72;80.45
67275;DHT22;55463;52.324;5.122;2022-09-14T08:38:38;17.73;79.57
67275;DHT22;55463;52.324;5.122;2022-09-14T08:43:41;17.76;79.47
67275;DHT22;55463;52.324;5.122;2022-09-14T08:46:14;17.79;79.16
67275;DHT22;55463;52.324;5.122;2022-09-14T08:48:46;17.83;79.63
67275;DHT22;55463;52.324;5.122;2022-09-14T08:51:12;17.86;80.17
67275;DHT22;55463;52.324;5.122;2022-09-14T08:53:39;17.93;80.18
67275;DHT22;55463;52.324;5.122;2022-09-14T08:56:16;17.93;80.26
67275;DHT22;55463;52.324;5.122;2022-09-14T08:58:57;18.10;79.33
67275;DHT22;55463;52.324;5.122;2022-09-14T09:04:27;18.02;79.15
67275;DHT22;55463;52.324;5.122;2022-09-14T09:07:09;18.08;79.18
67275;DHT22;55463;52.324;5.122;2022-09-14T09:09:51;18.05;79.30
67275;DHT22;55463;52.324;5.122;2022-09-14T09:12:20;18.12;78.66
67275;DHT22;55463;52.324;5.122;2022-09-14T09:14:52;18.15;79.09
67275;DHT22;55463;52.324;5.122;2022-09-14T09:20:02;18.14;78.51
67275;DHT22;55463;52.324;5.122;2022-09-14T09:22:38;18.12;79.19
67275;DHT22;55463;52.324;5.122;2022-09-14T09:25:06;18.14;79.04
67275;DHT22;55463;52.324;5.122;2022-09-14T09:27:35;18.21;79.39
67275;DHT22;55463;52.324;5.122;2022-09-14T09:30:00;18.24;78.42
67275;DHT22;55463;52.324;5.122;2022-09-14T09:32:26;18.31;78.92
67275;DHT22;55463;52.324;5.122;2022-09-14T09:34:51;18.28;77.91
67275;DHT22;55463;52.324;5.122;2022-09-14T09:37:21;18.18;77.12
67275;DHT22;55463;52.324;5.122;2022-09-14T09:39:47;18.29;77.35
67275;DHT22;55463;52.324;5.122;2022-09-14T09:42:14;18.38;77.51
67275;DHT22;55463;52.324;5.122;2022-09-14T09:47:33;18.31;77.79
67275;DHT22;55463;52.324;5.122;2022-09-14T09:50:19;18.32;78.67
67275;DHT22;55463;52.324;5.122;2022-09-14T09:52:57;18.39;78.88
67275;DHT22;55463;52.324;5.122;2022-09-14T09:55:29;18.51;78.09
67275;DHT22;55463;52.324;5.122;2022-09-14T09:57:56;18.42;77.10
67275;DHT22;55463;52.324;5.122;2022-09-14T10:00:24;18.39;76.28
67275;DHT22;55463;52.324;5.122;2022-09-14T10:02:51;18.42;76.84
67275;DHT22;55463;52.324;5.122;2022-09-14T10:05:23;18.59;76.81
67275;DHT22;55463;52.324;5.122;2022-09-14T10:08:04;18.57;75.73
67275;DHT22;55463;52.324;5.122;2022-09-14T10:12:59;18.60;76.59
67275;DHT22;55463;52.324;5.122;2022-09-14T10:15:27;18.59;76.38
67275;DHT22;55463;52.324;5.122;2022-09-14T10:18:15;18.63;77.38
67275;DHT22;55463;52.324;5.122;2022-09-14T10:20:43;18.70;77.70
67275;DHT22;55463;52.324;5.122;2022-09-14T10:25:48;18.73;77.89
67275;DHT22;55463;52.324;5.122;2022-09-14T10:28:29;18.69;76.26
67275;DHT22;55463;52.324;5.122;2022-09-14T10:31:01;18.80;76.41
67275;DHT22;55463;52.324;5.122;2022-09-14T10:33:28;18.84;75.37
67275;DHT22;55463;52.324;5.122;2022-09-14T10:36:12;18.74;75.88
67275;DHT22;55463;52.324;5.122;2022-09-14T10:38:52;18.80;76.91
67275;DHT22;55463;52.324;5.122;2022-09-14T10:41:44;18.91;76.62
67275;DHT22;55463;52.324;5.122;2022-09-14T10:44:47;19.18;75.56
67275;DHT22;55463;52.324;5.122;2022-09-14T10:53:27;20.18;71.61
67275;DHT22;55463;52.324;5.122;2022-09-14T10:56:32;20.26;71.63
67275;DHT22;55463;52.324;5.122;2022-09-14T11:01:58;20.65;72.22
67275;DHT22;55463;52.324;5.122;2022-09-14T11:04:47;20.59;68.88
67275;DHT22;55463;52.324;5.122;2022-09-14T11:10:21;21.04;67.54
67275;DHT22;55463;52.324;5.122;2022-09-14T11:13:00;21.37;67.53
67275;DHT22;55463;52.324;5.122;2022-09-14T11:18:26;21.87;66.63
67275;DHT22;55463;52.324;5.122;2022-09-14T11:23:54;22.13;66.51
67275;DHT22;55463;52.324;5.122;2022-09-14T11:26:37;22.21;62.91
67275;DHT22;55463;52.324;5.122;2022-09-14T11:29:17;22.45;63.79
67275;DHT22;55463;52.324;5.122;2022-09-14T11:31:51;22.32;64.77
67275;DHT22;55463;52.324;5.122;2022-09-14T11:34:29;22.72;62.84
67275;DHT22;55463;52.324;5.122;2022-09-14T11:37:02;23.01;61.37
67275;DHT22;55463;52.324;5.122;2022-09-14T11:39:31;23.37;60.43
67275;DHT22;55463;52.324;5.122;2022-09-14T11:42:02;23.18;58.61
67275;DHT22;55463;52.324;5.122;2022-09-14T11:44:35;23.35;58.67
67275;DHT22;55463;52.324;5.122;2022-09-14T11:47:14;23.18;58.30
67275;DHT22;55463;52.324;5.122;2022-09-14T11:49:57;22.92;58.76
67275;DHT22;55463;52.324;5.122;2022-09-14T11:52:27;22.89;59.27
67275;DHT22;55463;52.324;5.122;2022-09-14T11:54:53;22.84;59.85
67275;DHT22;55463;52.324;5.122;2022-09-14T11:57:19;22.80;60.82
67275;DHT22;55463;52.324;5.122;2022-09-14T11:59:51;23.08;59.89
67275;DHT22;55463;52.324;5.122;2022-09-14T12:15:56;23.86;57.89
67275;DHT22;55463;52.324;5.122;2022-09-14T12:20:46;24.10;56.68
67275;DHT22;55463;52.324;5.122;2022-09-14T12:23:41;23.87;54.06
67275;DHT22;55463;52.324;5.122;2022-09-14T12:36:07;23.08;58.60
67275;DHT22;55463;52.324;5.122;2022-09-14T12:46:08;24.20;55.70
67275;DHT22;55463;52.324;5.122;2022-09-14T12:51:43;24.06;56.24
67275;DHT22;55463;52.324;5.122;2022-09-14T12:54:28;23.92;56.77
67275;DHT22;55463;52.324;5.122;2022-09-14T12:57:38;24.03;56.84
67275;DHT22;55463;52.324;5.122;2022-09-14T13:00:11;23.89;56.21
67275;DHT22;55463;52.324;5.122;2022-09-14T13:02:44;23.20;56.85
67275;DHT22;55463;52.324;5.122;2022-09-14T13:05:17;23.17;58.91
67275;DHT22;55463;52.324;5.122;2022-09-14T13:07:43;22.65;59.71
67275;DHT22;55463;52.324;5.122;2022-09-14T13:10:30;22.82;60.95
67275;DHT22;55463;52.324;5.122;2022-09-14T13:12:56;23.46;62.01
67275;DHT22;55463;52.324;5.122;2022-09-14T13:15:35;23.51;60.19
67275;DHT22;55463;52.324;5.122;2022-09-14T13:20:49;23.01;61.58
67275;DHT22;55463;52.324;5.122;2022-09-14T13:23:19;22.97;62.25
67275;DHT22;55463;52.324;5.122;2022-09-14T13:25:45;22.94;62.08
67275;DHT22;55463;52.324;5.122;2022-09-14T13:28:16;22.56;63.44
67275;DHT22;55463;52.324;5.122;2022-09-14T13:30:52;22.51;63.22
67275;DHT22;55463;52.324;5.122;2022-09-14T13:33:18;22.14;63.19
67275;DHT22;55463;52.324;5.122;2022-09-14T13:38:23;22.47;63.01
67275;DHT22;55463;52.324;5.122;2022-09-14T13:40:50;22.84;62.49
67275;DHT22;55463;52.324;5.122;2022-09-14T13:43:17;22.87;62.56
67275;DHT22;55463;52.324;5.122;2022-09-14T13:45:44;22.77;64.07
67275;DHT22;55463;52.324;5.122;2022-09-14T13:48:12;22.59;63.07
67275;DHT22;55463;52.324;5.122;2022-09-14T13:50:38;22.47;64.31
67275;DHT22;55463;52.324;5.122;2022-09-14T13:53:44;22.65;65.12
67275;DHT22;55463;52.324;5.122;2022-09-14T14:04:29;22.08;65.67
67275;DHT22;55463;52.324;5.122;2022-09-14T14:07:20;21.93;64.29
67275;DHT22;55463;52.324;5.122;2022-09-14T14:09:50;21.63;64.62
67275;DHT22;55463;52.324;5.122;2022-09-14T14:12:33;21.55;66.49
67275;DHT22;55463;52.324;5.122;2022-09-14T14:17:37;21.41;65.99
67275;DHT22;55463;52.324;5.122;2022-09-14T14:22:59;21.49;66.69
67275;DHT22;55463;52.324;5.122;2022-09-14T14:25:35;21.50;65.45
67275;DHT22;55463;52.324;5.122;2022-09-14T14:28:04;21.37;65.30
67275;DHT22;55463;52.324;5.122;2022-09-14T14:30:39;21.38;67.28
67275;DHT22;55463;52.324;5.122;2022-09-14T14:33:10;21.27;62.93
67275;DHT22;55463;52.324;5.122;2022-09-14T14:35:36;21.15;63.59
67275;DHT22;55463;52.324;5.122;2022-09-14T14:38:02;21.28;64.87
67275;DHT22;55463;52.324;5.122;2022-09-14T14:40:28;21.21;63.16
67275;DHT22;55463;52.324;5.122;2022-09-14T14:42:56;21.31;64.29
67275;DHT22;55463;52.324;5.122;2022-09-14T14:45:24;21.53;66.65
67275;DHT22;55463;52.324;5.122;2022-09-14T14:47:51;21.49;63.12
67275;DHT22;55463;52.324;5.122;2022-09-14T14:50:22;21.48;65.44
67275;DHT22;55463;52.324;5.122;2022-09-14T14:52:48;21.41;65.29
67275;DHT22;55463;52.324;5.122;2022-09-14T14:55:14;21.30;66.52
67275;DHT22;55463;52.324;5.122;2022-09-14T14:57:39;21.14;66.63
67275;DHT22;55463;52.324;5.122;2022-09-14T15:00:15;20.94;66.30
67275;DHT22;55463;52.324;5.122;2022-09-14T15:02:41;20.77;66.60
67275;DHT22;55463;52.324;5.122;2022-09-14T15:05:06;20.79;66.95
67275;DHT22;55463;52.324;5.122;2022-09-14T15:07:32;20.55;67.29
67275;DHT22;55463;52.324;5.122;2022-09-14T15:09:57;20.48;68.30
67275;DHT22;55463;52.324;5.122;2022-09-14T15:12:23;20.26;66.21
67275;DHT22;55463;52.324;5.122;2022-09-14T15:14:48;20.24;67.54
67275;DHT22;55463;52.324;5.122;2022-09-14T15:17:14;20.26;67.87
67275;DHT22;55463;52.324;5.122;2022-09-14T15:19:39;20.22;68.87
67275;DHT22;55463;52.324;5.122;2022-09-14T15:22:05;20.11;67.50
67275;DHT22;55463;52.324;5.122;2022-09-14T15:24:30;20.10;69.21
67275;DHT22;55463;52.324;5.122;2022-09-14T15:26:57;19.98;68.71
67275;DHT22;55463;52.324;5.122;2022-09-14T15:29:23;20.08;69.30
67275;DHT22;55463;52.324;5.122;2022-09-14T15:31:48;20.18;69.29
67275;DHT22;55463;52.324;5.122;2022-09-14T15:34:14;20.28;67.88
67275;DHT22;55463;52.324;5.122;2022-09-14T15:36:44;20.48;66.95
67275;DHT22;55463;52.324;5.122;2022-09-14T15:39:24;20.66;69.20
67275;DHT22;55463;52.324;5.122;2022-09-14T15:41:50;20.80;69.35
67275;DHT22;55463;52.324;5.122;2022-09-14T15:44:15;20.87;65.91
67275;DHT22;55463;52.324;5.122;2022-09-14T15:46:41;21.00;67.86
67275;DHT22;55463;52.324;5.122;2022-09-14T15:49:13;20.72;65.68
67275;DHT22;55463;52.324;5.122;2022-09-14T15:51:41;20.87;66.88
67275;DHT22;55463;52.324;5.122;2022-09-14T15:54:06;20.86;65.35
67275;DHT22;55463;52.324;5.122;2022-09-14T15:56:32;20.49;65.08
67275;DHT22;55463;52.324;5.122;2022-09-14T15:58:58;20.59;67.07
67275;DHT22;55463;52.324;5.122;2022-09-14T16:01:24;20.25;66.48
67275;DHT22;55463;52.324;5.122;2022-09-14T16:03:56;20.29;68.84
67275;DHT22;55463;52.324;5.122;2022-09-14T16:06:21;20.29;69.10
67275;DHT22;55463;52.324;5.122;2022-09-14T16:08:46;20.38;68.46
67275;DHT22;55463;52.324;5.122;2022-09-14T16:11:12;20.18;67.69
67275;DHT22;55463;52.324;5.122;2022-09-14T16:13:37;20.10;66.92
67275;DHT22;55463;52.324;5.122;2022-09-14T16:16:08;19.89;67.83
67275;DHT22;55463;52.324;5.122;2022-09-14T16:18:35;19.77;69.91
67275;DHT22;55463;52.324;5.122;2022-09-14T16:21:08;19.74;69.26
67275;DHT22;55463;52.324;5.122;2022-09-14T16:23:36;19.51;69.05
67275;DHT22;55463;52.324;5.122;2022-09-14T16:26:06;19.48;70.13
67275;DHT22;55463;52.324;5.122;2022-09-14T16:28:32;19.51;68.33
67275;DHT22;55463;52.324;5.122;2022-09-14T16:31:11;19.34;69.61
67275;DHT22;55463;52.324;5.122;2022-09-14T16:33:39;19.34;69.94
67275;DHT22;55463;52.324;5.122;2022-09-14T16:36:07;19.32;69.87
67275;DHT22;55463;52.324;5.122;2022-09-14T16:38:33;19.22;70.11
67275;DHT22;55463;52.324;5.122;2022-09-14T16:40:59;19.26;69.79
67275;DHT22;55463;52.324;5.122;2022-09-14T16:43:25;19.25;70.05
67275;DHT22;55463;52.324;5.122;2022-09-14T16:46:05;19.29;70.41
67275;DHT22;55463;52.324;5.122;2022-09-14T16:48:31;19.29;71.49
67275;DHT22;55463;52.324;5.122;2022-09-14T16:50:57;19.21;70.64
67275;DHT22;55463;52.324;5.122;2022-09-14T16:53:23;19.17;71.95
67275;DHT22;55463;52.324;5.122;2022-09-14T16:55:49;19.12;71.76
67275;DHT22;55463;52.324;5.122;2022-09-14T16:58:14;19.08;72.16
67275;DHT22;55463;52.324;5.122;2022-09-14T17:00:40;19.03;71.82
67275;DHT22;55463;52.324;5.122;2022-09-14T17:03:05;18.97;72.64
67275;DHT22;55463;52.324;5.122;2022-09-14T17:05:30;18.87;71.49
67275;DHT22;55463;52.324;5.122;2022-09-14T17:07:56;18.83;72.14
67275;DHT22;55463;52.324;5.122;2022-09-14T17:10:21;18.79;72.67
67275;DHT22;55463;52.324;5.122;2022-09-14T17:12:46;18.66;73.16
67275;DHT22;55463;52.324;5.122;2022-09-14T17:15:12;18.59;73.12
67275;DHT22;55463;52.324;5.122;2022-09-14T17:17:38;18.49;71.90
67275;DHT22;55463;52.324;5.122;2022-09-14T17:20:05;18.38;72.96
67275;DHT22;55463;52.324;5.122;2022-09-14T17:22:31;18.31;73.36
67275;DHT22;55463;52.324;5.122;2022-09-14T17:24:57;18.27;73.94
67275;DHT22;55463;52.324;5.122;2022-09-14T17:27:22;18.24;74.19
67275;DHT22;55463;52.324;5.122;2022-09-14T17:29:48;18.17;73.68
67275;DHT22;55463;52.324;5.122;2022-09-14T17:32:13;18.12;74.15
67275;DHT22;55463;52.324;5.122;2022-09-14T17:34:38;18.02;73.48
67275;DHT22;55463;52.324;5.122;2022-09-14T17:37:04;17.94;74.72
67275;DHT22;55463;52.324;5.122;2022-09-14T17:39:29;17.90;74.91
67275;DHT22;55463;52.324;5.122;2022-09-14T17:41:55;17.83;74.90
67275;DHT22;55463;52.324;5.122;2022-09-14T17:44:21;17.74;74.68
67275;DHT22;55463;52.324;5.122;2022-09-14T17:46:50;17.67;75.41
67275;DHT22;55463;52.324;5.122;2022-09-14T17:49:15;17.69;75.48
67275;DHT22;55463;52.324;5.122;2022-09-14T17:51:40;17.61;75.74
67275;DHT22;55463;52.324;5.122;2022-09-14T17:54:06;17.59;75.79
67275;DHT22;55463;52.324;5.122;2022-09-14T17:56:31;17.55;76.17